sensor_id;sensor_type;location;lat;lon;timestamp;P1;durP1;ratioP1;P2;durP2;ratioP2
20080;SDS011;10200;49.232;9.222;2022-12-07T00:01:29;7.37;;;4.63;;
20080;SDS011;10200;49.232;9.222;2022-12-07T00:03:57;9.20;;;5.67;;
20080;SDS011;10200;49.232;9.222;2022-12-07T00:06:29;6.70;;;5.03;;
20080;SDS011;10200;49.232;9.222;2022-12-07T00:09:06;7.53;;;5.23;;
20080;SDS011;10200;49.232;9.222;2022-12-07T00:11:35;8.20;;;3.87;;
20080;SDS011;10200;49.232;9.222;2022-12-07T00:14:02;7.10;;;5.00;;
20080;SDS011;10200;49.232;9.222;2022-12-07T00:16:32;6.30;;;3.67;;
20080;SDS011;10200;49.232;9.222;2022-12-07T00:18:58;6.77;;;4.83;;
20080;SDS011;10200;49.232;9.222;2022-12-07T00:21:25;6.70;;;4.60;;
20080;SDS011;10200;49.232;9.222;2022-12-07T00:23:53;7.27;;;5.27;;
20080;SDS011;10200;49.232;9.222;2022-12-07T00:26:20;6.40;;;4.53;;
20080;SDS011;10200;49.232;9.222;2022-12-07T00:28:52;7.23;;;4.60;;
20080;SDS011;10200;49.232;9.222;2022-12-07T00:31:24;8.00;;;4.90;;
20080;SDS011;10200;49.232;9.222;2022-12-07T00:33:53;7.67;;;4.87;;
20080;SDS011;10200;49.232;9.222;2022-12-07T00:36:20;9.83;;;5.43;;
20080;SDS011;10200;49.232;9.222;2022-12-07T00:38:47;7.77;;;4.90;;
20080;SDS011;10200;49.232;9.222;2022-12-07T00:41:14;8.80;;;4.97;;
20080;SDS011;10200;49.232;9.222;2022-12-07T00:43:42;6.43;;;4.30;;
20080;SDS011;10200;49.232;9.222;2022-12-07T00:46:09;7.83;;;5.50;;
20080;SDS011;10200;49.232;9.222;2022-12-07T00:48:36;7.27;;;5.17;;
20080;SDS011;10200;49.232;9.222;2022-12-07T00:51:02;9.33;;;4.83;;
20080;SDS011;10200;49.232;9.222;2022-12-07T00:53:29;6.50;;;4.47;;
20080;SDS011;10200;49.232;9.222;2022-12-07T00:55:55;8.90;;;4.83;;
20080;SDS011;10200;49.232;9.222;2022-12-07T00:58:21;7.17;;;4.83;;
20080;SDS011;10200;49.232;9.222;2022-12-07T01:00:48;6.33;;;4.70;;
20080;SDS011;10200;49.232;9.222;2022-12-07T01:03:14;9.93;;;5.10;;
20080;SDS011;10200;49.232;9.222;2022-12-07T01:05:48;5.67;;;4.00;;
20080;SDS011;10200;49.232;9.222;2022-12-07T01:08:15;7.73;;;4.93;;
20080;SDS011;10200;49.232;9.222;2022-12-07T01:10:41;7.43;;;4.63;;
20080;SDS011;10200;49.232;9.222;2022-12-07T01:13:06;6.47;;;4.30;;
20080;SDS011;10200;49.232;9.222;2022-12-07T01:15:32;6.97;;;4.27;;
20080;SDS011;10200;49.232;9.222;2022-12-07T01:17:57;7.30;;;4.60;;
20080;SDS011;10200;49.232;9.222;2022-12-07T01:20:23;6.20;;;4.57;;
20080;SDS011;10200;49.232;9.222;2022-12-07T01:22:48;6.87;;;4.97;;
20080;SDS011;10200;49.232;9.222;2022-12-07T01:25:14;8.97;;;5.13;;
20080;SDS011;10200;49.232;9.222;2022-12-07T01:27:40;9.60;;;5.70;;
20080;SDS011;10200;49.232;9.222;2022-12-07T01:30:06;8.80;;;5.63;;
20080;SDS011;10200;49.232;9.222;2022-12-07T01:32:32;7.00;;;4.97;;
20080;SDS011;10200;49.232;9.222;2022-12-07T01:34:58;7.50;;;4.47;;
20080;SDS011;10200;49.232;9.222;2022-12-07T01:37:24;7.93;;;4.60;;
20080;SDS011;10200;49.232;9.222;2022-12-07T01:39:50;7.70;;;4.77;;
20080;SDS011;10200;49.232;9.222;2022-12-07T01:42:16;8.10;;;4.90;;
20080;SDS011;10200;49.232;9.222;2022-12-07T01:47:43;7.93;;;4.83;;
20080;SDS011;10200;49.232;9.222;2022-12-07T01:50:18;7.50;;;4.37;;
20080;SDS011;10200;49.232;9.222;2022-12-07T01:52:44;8.30;;;5.10;;
20080;SDS011;10200;49.232;9.222;2022-12-07T01:55:14;8.57;;;4.57;;
20080;SDS011;10200;49.232;9.222;2022-12-07T01:57:41;7.77;;;4.97;;
20080;SDS011;10200;49.232;9.222;2022-12-07T02:00:11;8.20;;;4.90;;
20080;SDS011;10200;49.232;9.222;2022-12-07T02:02:39;8.07;;;4.73;;
20080;SDS011;10200;49.232;9.222;2022-12-07T02:05:18;6.53;;;4.37;;
20080;SDS011;10200;49.232;9.222;2022-12-07T02:07:44;7.67;;;4.90;;
20080;SDS011;10200;49.232;9.222;2022-12-07T02:12:47;7.23;;;4.57;;
20080;SDS011;10200;49.232;9.222;2022-12-07T02:15:15;6.93;;;4.60;;
20080;SDS011;10200;49.232;9.222;2022-12-07T02:17:44;8.77;;;5.37;;
20080;SDS011;10200;49.232;9.222;2022-12-07T02:29:10;7.73;;;4.50;;
20080;SDS011;10200;49.232;9.222;2022-12-07T02:31:37;8.70;;;5.23;;
20080;SDS011;10200;49.232;9.222;2022-12-07T02:36:51;6.67;;;4.60;;
20080;SDS011;10200;49.232;9.222;2022-12-07T02:39:24;8.40;;;5.27;;
20080;SDS011;10200;49.232;9.222;2022-12-07T02:42:14;8.23;;;5.50;;
20080;SDS011;10200;49.232;9.222;2022-12-07T02:44:43;7.37;;;4.97;;
20080;SDS011;10200;49.232;9.222;2022-12-07T02:47:10;8.33;;;5.30;;
20080;SDS011;10200;49.232;9.222;2022-12-07T02:49:39;6.80;;;4.97;;
20080;SDS011;10200;49.232;9.222;2022-12-07T02:52:05;9.33;;;5.63;;
20080;SDS011;10200;49.232;9.222;2022-12-07T02:54:31;8.27;;;5.80;;
20080;SDS011;10200;49.232;9.222;2022-12-07T03:05:01;8.70;;;6.17;;
20080;SDS011;10200;49.232;9.222;2022-12-07T03:07:47;10.33;;;6.30;;
20080;SDS011;10200;49.232;9.222;2022-12-07T03:10:35;10.43;;;6.07;;
20080;SDS011;10200;49.232;9.222;2022-12-07T03:13:28;11.00;;;6.07;;
20080;SDS011;10200;49.232;9.222;2022-12-07T03:18:35;7.87;;;6.03;;
20080;SDS011;10200;49.232;9.222;2022-12-07T03:21:25;10.90;;;7.03;;
20080;SDS011;10200;49.232;9.222;2022-12-07T03:23:55;11.23;;;7.60;;
20080;SDS011;10200;49.232;9.222;2022-12-07T03:26:26;9.40;;;6.27;;
20080;SDS011;10200;49.232;9.222;2022-12-07T03:28:59;11.53;;;6.53;;
20080;SDS011;10200;49.232;9.222;2022-12-07T03:31:31;9.73;;;6.43;;
20080;SDS011;10200;49.232;9.222;2022-12-07T03:34:02;8.20;;;6.33;;
20080;SDS011;10200;49.232;9.222;2022-12-07T03:36:47;10.43;;;6.73;;
20080;SDS011;10200;49.232;9.222;2022-12-07T03:39:28;8.87;;;6.07;;
20080;SDS011;10200;49.232;9.222;2022-12-07T03:42:00;12.83;;;7.07;;
20080;SDS011;10200;49.232;9.222;2022-12-07T03:44:29;8.10;;;5.93;;
20080;SDS011;10200;49.232;9.222;2022-12-07T03:50:00;10.80;;;6.87;;
20080;SDS011;10200;49.232;9.222;2022-12-07T03:55:10;10.23;;;6.73;;
20080;SDS011;10200;49.232;9.222;2022-12-07T03:57:41;8.27;;;6.53;;
20080;SDS011;10200;49.232;9.222;2022-12-07T04:00:10;8.37;;;5.90;;
20080;SDS011;10200;49.232;9.222;2022-12-07T04:02:36;9.17;;;5.97;;
20080;SDS011;10200;49.232;9.222;2022-12-07T04:05:02;10.90;;;6.50;;
20080;SDS011;10200;49.232;9.222;2022-12-07T04:07:29;11.13;;;7.50;;
20080;SDS011;10200;49.232;9.222;2022-12-07T04:09:54;10.23;;;6.70;;
20080;SDS011;10200;49.232;9.222;2022-12-07T04:12:20;9.17;;;6.40;;
20080;SDS011;10200;49.232;9.222;2022-12-07T04:14:46;8.83;;;6.77;;
20080;SDS011;10200;49.232;9.222;2022-12-07T04:17:12;9.63;;;6.40;;
20080;SDS011;10200;49.232;9.222;2022-12-07T04:19:38;7.47;;;6.07;;
20080;SDS011;10200;49.232;9.222;2022-12-07T04:22:03;10.20;;;6.90;;
20080;SDS011;10200;49.232;9.222;2022-12-07T04:24:30;11.27;;;6.30;;
20080;SDS011;10200;49.232;9.222;2022-12-07T04:26:56;10.63;;;6.80;;
20080;SDS011;10200;49.232;9.222;2022-12-07T04:29:21;11.30;;;6.93;;
20080;SDS011;10200;49.232;9.222;2022-12-07T04:31:47;10.00;;;6.40;;
20080;SDS011;10200;49.232;9.222;2022-12-07T04:34:13;11.80;;;7.33;;
20080;SDS011;10200;49.232;9.222;2022-12-07T04:36:40;9.53;;;6.87;;
20080;SDS011;10200;49.232;9.222;2022-12-07T04:39:11;12.80;;;7.20;;
20080;SDS011;10200;49.232;9.222;2022-12-07T04:41:43;11.60;;;7.27;;
20080;SDS011;10200;49.232;9.222;2022-12-07T04:44:09;10.33;;;7.57;;
20080;SDS011;10200;49.232;9.222;2022-12-07T04:46:36;12.53;;;7.87;;
20080;SDS011;10200;49.232;9.222;2022-12-07T04:49:02;11.90;;;7.50;;
20080;SDS011;10200;49.232;9.222;2022-12-07T04:51:28;11.17;;;8.30;;
20080;SDS011;10200;49.232;9.222;2022-12-07T04:53:54;10.23;;;6.87;;
20080;SDS011;10200;49.232;9.222;2022-12-07T04:56:21;11.73;;;7.63;;
20080;SDS011;10200;49.232;9.222;2022-12-07T04:58:47;11.07;;;7.57;;
20080;SDS011;10200;49.232;9.222;2022-12-07T05:01:14;10.40;;;7.13;;
20080;SDS011;10200;49.232;9.222;2022-12-07T05:03:40;9.70;;;7.13;;
20080;SDS011;10200;49.232;9.222;2022-12-07T05:06:06;12.03;;;7.70;;
20080;SDS011;10200;49.232;9.222;2022-12-07T05:08:33;11.60;;;7.87;;
20080;SDS011;10200;49.232;9.222;2022-12-07T05:10:59;12.37;;;7.77;;
20080;SDS011;10200;49.232;9.222;2022-12-07T05:13:26;12.53;;;8.53;;
20080;SDS011;10200;49.232;9.222;2022-12-07T05:15:51;12.07;;;7.87;;
20080;SDS011;10200;49.232;9.222;2022-12-07T05:18:17;13.57;;;8.37;;
20080;SDS011;10200;49.232;9.222;2022-12-07T05:20:43;14.17;;;7.70;;
20080;SDS011;10200;49.232;9.222;2022-12-07T05:23:09;14.00;;;8.33;;
20080;SDS011;10200;49.232;9.222;2022-12-07T05:25:35;10.57;;;7.10;;
20080;SDS011;10200;49.232;9.222;2022-12-07T05:28:01;10.33;;;8.10;;
20080;SDS011;10200;49.232;9.222;2022-12-07T05:30:27;15.70;;;8.10;;
20080;SDS011;10200;49.232;9.222;2022-12-07T05:32:52;10.27;;;6.97;;
20080;SDS011;10200;49.232;9.222;2022-12-07T05:35:18;13.60;;;8.57;;
20080;SDS011;10200;49.232;9.222;2022-12-07T05:37:44;9.07;;;6.83;;
20080;SDS011;10200;49.232;9.222;2022-12-07T05:40:10;10.43;;;7.13;;
20080;SDS011;10200;49.232;9.222;2022-12-07T05:42:36;12.23;;;7.93;;
20080;SDS011;10200;49.232;9.222;2022-12-07T05:45:02;16.20;;;7.53;;
20080;SDS011;10200;49.232;9.222;2022-12-07T05:47:28;10.70;;;7.30;;
20080;SDS011;10200;49.232;9.222;2022-12-07T05:49:54;11.50;;;6.83;;
20080;SDS011;10200;49.232;9.222;2022-12-07T05:52:19;11.30;;;7.07;;
20080;SDS011;10200;49.232;9.222;2022-12-07T05:54:45;11.67;;;7.60;;
20080;SDS011;10200;49.232;9.222;2022-12-07T05:57:11;10.73;;;6.83;;
20080;SDS011;10200;49.232;9.222;2022-12-07T05:59:36;9.37;;;6.93;;
20080;SDS011;10200;49.232;9.222;2022-12-07T06:02:06;13.47;;;7.93;;
20080;SDS011;10200;49.232;9.222;2022-12-07T06:04:35;11.00;;;6.93;;
20080;SDS011;10200;49.232;9.222;2022-12-07T06:07:02;10.20;;;6.97;;
20080;SDS011;10200;49.232;9.222;2022-12-07T06:09:28;11.27;;;6.40;;
20080;SDS011;10200;49.232;9.222;2022-12-07T06:11:55;9.23;;;6.83;;
20080;SDS011;10200;49.232;9.222;2022-12-07T06:14:40;13.07;;;6.67;;
20080;SDS011;10200;49.232;9.222;2022-12-07T06:17:05;9.93;;;7.13;;
20080;SDS011;10200;49.232;9.222;2022-12-07T06:19:31;8.13;;;5.87;;
20080;SDS011;10200;49.232;9.222;2022-12-07T06:21:58;15.30;;;8.47;;
20080;SDS011;10200;49.232;9.222;2022-12-07T06:24:24;11.63;;;7.43;;
20080;SDS011;10200;49.232;9.222;2022-12-07T06:26:50;12.40;;;7.50;;
20080;SDS011;10200;49.232;9.222;2022-12-07T06:29:16;11.43;;;7.77;;
20080;SDS011;10200;49.232;9.222;2022-12-07T06:31:42;11.13;;;7.50;;
20080;SDS011;10200;49.232;9.222;2022-12-07T06:34:15;14.13;;;7.57;;
20080;SDS011;10200;49.232;9.222;2022-12-07T06:36:42;12.23;;;7.67;;
20080;SDS011;10200;49.232;9.222;2022-12-07T06:39:09;14.27;;;8.30;;
20080;SDS011;10200;49.232;9.222;2022-12-07T06:41:37;11.17;;;6.90;;
20080;SDS011;10200;49.232;9.222;2022-12-07T06:44:07;11.40;;;7.13;;
20080;SDS011;10200;49.232;9.222;2022-12-07T06:46:32;12.60;;;8.60;;
20080;SDS011;10200;49.232;9.222;2022-12-07T06:49:00;12.50;;;8.23;;
20080;SDS011;10200;49.232;9.222;2022-12-07T06:51:25;11.27;;;7.23;;
20080;SDS011;10200;49.232;9.222;2022-12-07T06:53:51;12.73;;;8.00;;
20080;SDS011;10200;49.232;9.222;2022-12-07T06:56:16;15.27;;;8.53;;
20080;SDS011;10200;49.232;9.222;2022-12-07T06:58:42;14.70;;;8.10;;
20080;SDS011;10200;49.232;9.222;2022-12-07T07:01:08;12.57;;;7.80;;
20080;SDS011;10200;49.232;9.222;2022-12-07T07:03:35;11.93;;;7.30;;
20080;SDS011;10200;49.232;9.222;2022-12-07T07:06:01;10.07;;;6.63;;
20080;SDS011;10200;49.232;9.222;2022-12-07T07:08:26;11.27;;;7.60;;
20080;SDS011;10200;49.232;9.222;2022-12-07T07:10:52;14.47;;;7.93;;
20080;SDS011;10200;49.232;9.222;2022-12-07T07:13:17;9.50;;;7.30;;
20080;SDS011;10200;49.232;9.222;2022-12-07T07:15:43;10.27;;;6.97;;
20080;SDS011;10200;49.232;9.222;2022-12-07T07:18:09;12.93;;;7.63;;
20080;SDS011;10200;49.232;9.222;2022-12-07T07:20:34;12.53;;;7.90;;
20080;SDS011;10200;49.232;9.222;2022-12-07T07:23:02;13.30;;;7.70;;
20080;SDS011;10200;49.232;9.222;2022-12-07T07:25:28;13.10;;;7.97;;
20080;SDS011;10200;49.232;9.222;2022-12-07T07:27:53;11.90;;;7.63;;
20080;SDS011;10200;49.232;9.222;2022-12-07T07:30:19;12.30;;;7.60;;
20080;SDS011;10200;49.232;9.222;2022-12-07T07:32:44;10.97;;;7.67;;
20080;SDS011;10200;49.232;9.222;2022-12-07T07:35:10;11.63;;;7.40;;
20080;SDS011;10200;49.232;9.222;2022-12-07T07:37:35;12.13;;;7.50;;
20080;SDS011;10200;49.232;9.222;2022-12-07T07:40:01;12.13;;;8.23;;
20080;SDS011;10200;49.232;9.222;2022-12-07T07:42:27;11.37;;;7.33;;
20080;SDS011;10200;49.232;9.222;2022-12-07T07:44:52;10.67;;;7.13;;
20080;SDS011;10200;49.232;9.222;2022-12-07T07:47:18;11.80;;;7.90;;
20080;SDS011;10200;49.232;9.222;2022-12-07T07:49:44;13.30;;;8.40;;
20080;SDS011;10200;49.232;9.222;2022-12-07T07:52:09;14.97;;;9.70;;
20080;SDS011;10200;49.232;9.222;2022-12-07T07:54:35;15.80;;;10.47;;
20080;SDS011;10200;49.232;9.222;2022-12-07T07:57:00;10.87;;;8.03;;
20080;SDS011;10200;49.232;9.222;2022-12-07T07:59:26;11.37;;;7.93;;
20080;SDS011;10200;49.232;9.222;2022-12-07T08:01:51;9.90;;;6.80;;
20080;SDS011;10200;49.232;9.222;2022-12-07T08:04:17;11.03;;;7.33;;
20080;SDS011;10200;49.232;9.222;2022-12-07T08:06:43;11.70;;;7.30;;
20080;SDS011;10200;49.232;9.222;2022-12-07T08:09:08;14.60;;;7.83;;
20080;SDS011;10200;49.232;9.222;2022-12-07T08:11:34;11.03;;;7.43;;
20080;SDS011;10200;49.232;9.222;2022-12-07T08:14:01;13.07;;;8.10;;
20080;SDS011;10200;49.232;9.222;2022-12-07T08:16:26;9.83;;;7.17;;
20080;SDS011;10200;49.232;9.222;2022-12-07T08:18:52;11.00;;;7.30;;
20080;SDS011;10200;49.232;9.222;2022-12-07T08:21:17;11.30;;;7.47;;
20080;SDS011;10200;49.232;9.222;2022-12-07T08:23:43;11.83;;;7.20;;
20080;SDS011;10200;49.232;9.222;2022-12-07T08:26:13;19.73;;;7.90;;
20080;SDS011;10200;49.232;9.222;2022-12-07T08:28:40;12.40;;;7.73;;
20080;SDS011;10200;49.232;9.222;2022-12-07T08:31:07;14.63;;;7.97;;
20080;SDS011;10200;49.232;9.222;2022-12-07T08:33:35;12.80;;;8.00;;
20080;SDS011;10200;49.232;9.222;2022-12-07T08:36:05;12.03;;;8.10;;
20080;SDS011;10200;49.232;9.222;2022-12-07T08:38:35;13.03;;;8.07;;
20080;SDS011;10200;49.232;9.222;2022-12-07T08:41:02;12.83;;;8.33;;
20080;SDS011;10200;49.232;9.222;2022-12-07T08:43:28;13.70;;;8.13;;
20080;SDS011;10200;49.232;9.222;2022-12-07T08:48:28;13.20;;;7.70;;
20080;SDS011;10200;49.232;9.222;2022-12-07T08:50:55;13.47;;;8.40;;
20080;SDS011;10200;49.232;9.222;2022-12-07T08:53:21;14.57;;;8.40;;
20080;SDS011;10200;49.232;9.222;2022-12-07T08:55:47;15.47;;;8.43;;
20080;SDS011;10200;49.232;9.222;2022-12-07T08:58:13;14.20;;;8.80;;
20080;SDS011;10200;49.232;9.222;2022-12-07T09:00:39;13.33;;;8.37;;
20080;SDS011;10200;49.232;9.222;2022-12-07T09:03:04;15.03;;;8.50;;
20080;SDS011;10200;49.232;9.222;2022-12-07T09:05:30;15.03;;;8.23;;
20080;SDS011;10200;49.232;9.222;2022-12-07T09:07:59;14.43;;;8.17;;
20080;SDS011;10200;49.232;9.222;2022-12-07T09:10:26;10.27;;;7.23;;
20080;SDS011;10200;49.232;9.222;2022-12-07T09:12:52;15.13;;;8.07;;
20080;SDS011;10200;49.232;9.222;2022-12-07T09:15:17;13.87;;;8.47;;
20080;SDS011;10200;49.232;9.222;2022-12-07T09:17:43;12.20;;;8.37;;
20080;SDS011;10200;49.232;9.222;2022-12-07T09:20:08;13.90;;;8.00;;
20080;SDS011;10200;49.232;9.222;2022-12-07T09:22:34;13.50;;;8.23;;
20080;SDS011;10200;49.232;9.222;2022-12-07T09:25:00;11.80;;;7.03;;
20080;SDS011;10200;49.232;9.222;2022-12-07T09:27:26;11.77;;;7.53;;
20080;SDS011;10200;49.232;9.222;2022-12-07T09:29:52;11.17;;;6.57;;
20080;SDS011;10200;49.232;9.222;2022-12-07T09:32:18;13.13;;;8.17;;
20080;SDS011;10200;49.232;9.222;2022-12-07T09:34:44;14.90;;;8.60;;
20080;SDS011;10200;49.232;9.222;2022-12-07T09:37:09;16.53;;;8.30;;
20080;SDS011;10200;49.232;9.222;2022-12-07T09:39:38;13.57;;;8.23;;
20080;SDS011;10200;49.232;9.222;2022-12-07T09:42:05;13.13;;;7.87;;
20080;SDS011;10200;49.232;9.222;2022-12-07T09:44:32;13.40;;;8.47;;
20080;SDS011;10200;49.232;9.222;2022-12-07T09:46:58;11.63;;;7.73;;
20080;SDS011;10200;49.232;9.222;2022-12-07T09:49:24;13.83;;;8.30;;
20080;SDS011;10200;49.232;9.222;2022-12-07T09:54:52;13.23;;;7.90;;
20080;SDS011;10200;49.232;9.222;2022-12-07T09:57:18;14.13;;;8.33;;
20080;SDS011;10200;49.232;9.222;2022-12-07T09:59:52;10.50;;;7.00;;
20080;SDS011;10200;49.232;9.222;2022-12-07T10:02:23;11.43;;;7.73;;
20080;SDS011;10200;49.232;9.222;2022-12-07T10:04:58;17.50;;;7.80;;
20080;SDS011;10200;49.232;9.222;2022-12-07T10:07:24;11.37;;;8.07;;
20080;SDS011;10200;49.232;9.222;2022-12-07T10:09:49;12.17;;;7.07;;
20080;SDS011;10200;49.232;9.222;2022-12-07T10:12:15;11.13;;;7.70;;
20080;SDS011;10200;49.232;9.222;2022-12-07T10:20:07;12.30;;;7.80;;
20080;SDS011;10200;49.232;9.222;2022-12-07T10:22:36;12.60;;;7.90;;
20080;SDS011;10200;49.232;9.222;2022-12-07T10:25:07;12.67;;;7.63;;
20080;SDS011;10200;49.232;9.222;2022-12-07T10:27:41;11.57;;;7.67;;
20080;SDS011;10200;49.232;9.222;2022-12-07T10:30:07;10.83;;;6.90;;
20080;SDS011;10200;49.232;9.222;2022-12-07T10:32:38;11.63;;;8.00;;
20080;SDS011;10200;49.232;9.222;2022-12-07T10:37:56;10.40;;;6.97;;
20080;SDS011;10200;49.232;9.222;2022-12-07T10:40:28;11.67;;;6.60;;
20080;SDS011;10200;49.232;9.222;2022-12-07T10:43:02;13.97;;;7.83;;
20080;SDS011;10200;49.232;9.222;2022-12-07T10:45:29;9.77;;;6.57;;
20080;SDS011;10200;49.232;9.222;2022-12-07T10:48:12;10.43;;;6.87;;
20080;SDS011;10200;49.232;9.222;2022-12-07T10:53:47;10.87;;;6.90;;
20080;SDS011;10200;49.232;9.222;2022-12-07T10:59:01;11.10;;;7.43;;
20080;SDS011;10200;49.232;9.222;2022-12-07T11:12:24;12.33;;;7.63;;
20080;SDS011;10200;49.232;9.222;2022-12-07T11:18:10;10.70;;;6.93;;
20080;SDS011;10200;49.232;9.222;2022-12-07T11:20:52;12.00;;;6.47;;
20080;SDS011;10200;49.232;9.222;2022-12-07T11:25:53;14.87;;;6.73;;
20080;SDS011;10200;49.232;9.222;2022-12-07T11:31:32;9.00;;;6.37;;
20080;SDS011;10200;49.232;9.222;2022-12-07T11:37:03;10.27;;;6.97;;
20080;SDS011;10200;49.232;9.222;2022-12-07T11:39:39;14.30;;;7.20;;
20080;SDS011;10200;49.232;9.222;2022-12-07T11:42:30;10.20;;;6.47;;
20080;SDS011;10200;49.232;9.222;2022-12-07T11:45:10;15.07;;;7.77;;
20080;SDS011;10200;49.232;9.222;2022-12-07T11:48:06;13.07;;;6.63;;
20080;SDS011;10200;49.232;9.222;2022-12-07T11:50:41;13.30;;;7.70;;
20080;SDS011;10200;49.232;9.222;2022-12-07T11:53:11;11.23;;;6.80;;
20080;SDS011;10200;49.232;9.222;2022-12-07T11:55:46;10.07;;;6.97;;
20080;SDS011;10200;49.232;9.222;2022-12-07T12:01:14;15.83;;;8.00;;
20080;SDS011;10200;49.232;9.222;2022-12-07T12:04:06;8.60;;;6.33;;
20080;SDS011;10200;49.232;9.222;2022-12-07T12:06:56;12.10;;;7.47;;
20080;SDS011;10200;49.232;9.222;2022-12-07T12:09:24;11.47;;;7.33;;
20080;SDS011;10200;49.232;9.222;2022-12-07T12:12:08;12.63;;;6.53;;
20080;SDS011;10200;49.232;9.222;2022-12-07T12:22:45;14.63;;;7.53;;
20080;SDS011;10200;49.232;9.222;2022-12-07T12:27:47;13.50;;;7.63;;
20080;SDS011;10200;49.232;9.222;2022-12-07T12:32:54;12.60;;;7.33;;
20080;SDS011;10200;49.232;9.222;2022-12-07T12:40:55;11.43;;;6.83;;
20080;SDS011;10200;49.232;9.222;2022-12-07T12:43:43;13.33;;;8.07;;
20080;SDS011;10200;49.232;9.222;2022-12-07T12:59:31;10.70;;;7.47;;
20080;SDS011;10200;49.232;9.222;2022-12-07T13:02:25;14.97;;;7.83;;
20080;SDS011;10200;49.232;9.222;2022-12-07T13:05:14;10.80;;;6.97;;
20080;SDS011;10200;49.232;9.222;2022-12-07T13:18:22;8.27;;;5.93;;
20080;SDS011;10200;49.232;9.222;2022-12-07T13:20:57;9.80;;;6.53;;
20080;SDS011;10200;49.232;9.222;2022-12-07T13:29:18;16.57;;;7.03;;
20080;SDS011;10200;49.232;9.222;2022-12-07T13:31:51;14.23;;;7.93;;
20080;SDS011;10200;49.232;9.222;2022-12-07T13:34:35;12.73;;;8.10;;
20080;SDS011;10200;49.232;9.222;2022-12-07T13:37:10;17.00;;;7.07;;
20080;SDS011;10200;49.232;9.222;2022-12-07T13:39:50;10.53;;;6.70;;
20080;SDS011;10200;49.232;9.222;2022-12-07T13:44:52;10.07;;;6.90;;
20080;SDS011;10200;49.232;9.222;2022-12-07T13:47:39;16.47;;;7.50;;
20080;SDS011;10200;49.232;9.222;2022-12-07T13:50:42;11.97;;;7.20;;
20080;SDS011;10200;49.232;9.222;2022-12-07T13:53:01;12.17;;;7.30;;
20080;SDS011;10200;49.232;9.222;2022-12-07T13:55:36;11.13;;;6.97;;
20080;SDS011;10200;49.232;9.222;2022-12-07T13:58:10;13.20;;;8.37;;
20080;SDS011;10200;49.232;9.222;2022-12-07T14:00:36;14.00;;;7.60;;
20080;SDS011;10200;49.232;9.222;2022-12-07T14:05:36;10.83;;;7.17;;
20080;SDS011;10200;49.232;9.222;2022-12-07T14:12:56;11.60;;;7.60;;
20080;SDS011;10200;49.232;9.222;2022-12-07T14:15:24;10.97;;;7.53;;
20080;SDS011;10200;49.232;9.222;2022-12-07T14:17:54;11.50;;;7.20;;
20080;SDS011;10200;49.232;9.222;2022-12-07T14:23:00;13.83;;;8.07;;
20080;SDS011;10200;49.232;9.222;2022-12-07T14:25:34;12.10;;;7.77;;
20080;SDS011;10200;49.232;9.222;2022-12-07T14:30:55;14.70;;;7.80;;
20080;SDS011;10200;49.232;9.222;2022-12-07T14:33:21;14.77;;;7.50;;
20080;SDS011;10200;49.232;9.222;2022-12-07T14:35:48;11.73;;;7.70;;
20080;SDS011;10200;49.232;9.222;2022-12-07T14:38:14;13.27;;;7.90;;
20080;SDS011;10200;49.232;9.222;2022-12-07T14:40:40;14.53;;;7.77;;
20080;SDS011;10200;49.232;9.222;2022-12-07T14:43:09;14.23;;;8.13;;
20080;SDS011;10200;49.232;9.222;2022-12-07T14:45:37;14.03;;;8.03;;
20080;SDS011;10200;49.232;9.222;2022-12-07T14:48:05;11.57;;;7.97;;
20080;SDS011;10200;49.232;9.222;2022-12-07T14:50:37;14.20;;;8.33;;
20080;SDS011;10200;49.232;9.222;2022-12-07T14:53:13;11.13;;;7.00;;
20080;SDS011;10200;49.232;9.222;2022-12-07T14:55:41;12.87;;;7.90;;
20080;SDS011;10200;49.232;9.222;2022-12-07T14:58:11;10.53;;;7.10;;
20080;SDS011;10200;49.232;9.222;2022-12-07T15:00:39;12.10;;;6.90;;
20080;SDS011;10200;49.232;9.222;2022-12-07T15:03:05;12.47;;;7.83;;
20080;SDS011;10200;49.232;9.222;2022-12-07T15:05:30;10.33;;;7.03;;
20080;SDS011;10200;49.232;9.222;2022-12-07T15:07:56;14.50;;;8.43;;
20080;SDS011;10200;49.232;9.222;2022-12-07T15:10:23;13.67;;;8.37;;
20080;SDS011;10200;49.232;9.222;2022-12-07T15:13:03;10.33;;;7.03;;
20080;SDS011;10200;49.232;9.222;2022-12-07T15:15:49;12.27;;;8.50;;
20080;SDS011;10200;49.232;9.222;2022-12-07T15:18:16;12.90;;;7.30;;
20080;SDS011;10200;49.232;9.222;2022-12-07T15:20:42;12.03;;;7.77;;
20080;SDS011;10200;49.232;9.222;2022-12-07T15:23:08;15.43;;;8.77;;
20080;SDS011;10200;49.232;9.222;2022-12-07T15:25:35;16.60;;;9.07;;
20080;SDS011;10200;49.232;9.222;2022-12-07T15:28:00;20.30;;;10.63;;
20080;SDS011;10200;49.232;9.222;2022-12-07T15:30:26;13.20;;;9.03;;
20080;SDS011;10200;49.232;9.222;2022-12-07T15:32:52;17.80;;;9.70;;
20080;SDS011;10200;49.232;9.222;2022-12-07T15:35:18;14.47;;;8.90;;
20080;SDS011;10200;49.232;9.222;2022-12-07T15:37:44;18.20;;;12.07;;
20080;SDS011;10200;49.232;9.222;2022-12-07T15:40:10;13.17;;;8.90;;
20080;SDS011;10200;49.232;9.222;2022-12-07T15:42:36;14.10;;;8.40;;
20080;SDS011;10200;49.232;9.222;2022-12-07T15:45:02;14.00;;;8.53;;
20080;SDS011;10200;49.232;9.222;2022-12-07T15:47:30;14.13;;;8.07;;
20080;SDS011;10200;49.232;9.222;2022-12-07T15:50:01;10.93;;;7.13;;
20080;SDS011;10200;49.232;9.222;2022-12-07T15:52:29;12.20;;;7.67;;
20080;SDS011;10200;49.232;9.222;2022-12-07T15:54:54;10.23;;;7.07;;
20080;SDS011;10200;49.232;9.222;2022-12-07T15:57:20;14.20;;;8.40;;
20080;SDS011;10200;49.232;9.222;2022-12-07T15:59:46;15.37;;;8.97;;
20080;SDS011;10200;49.232;9.222;2022-12-07T16:02:12;14.37;;;8.37;;
20080;SDS011;10200;49.232;9.222;2022-12-07T16:04:38;12.33;;;7.80;;
20080;SDS011;10200;49.232;9.222;2022-12-07T16:07:03;13.70;;;8.03;;
20080;SDS011;10200;49.232;9.222;2022-12-07T16:09:29;13.43;;;8.50;;
20080;SDS011;10200;49.232;9.222;2022-12-07T16:11:55;12.30;;;7.83;;
20080;SDS011;10200;49.232;9.222;2022-12-07T16:14:21;14.43;;;8.37;;
20080;SDS011;10200;49.232;9.222;2022-12-07T16:16:47;13.57;;;7.77;;
20080;SDS011;10200;49.232;9.222;2022-12-07T16:19:12;24.37;;;9.37;;
20080;SDS011;10200;49.232;9.222;2022-12-07T16:21:38;14.00;;;9.47;;
20080;SDS011;10200;49.232;9.222;2022-12-07T16:24:04;14.80;;;9.73;;
20080;SDS011;10200;49.232;9.222;2022-12-07T16:26:30;18.03;;;9.77;;
20080;SDS011;10200;49.232;9.222;2022-12-07T16:28:56;11.67;;;7.77;;
20080;SDS011;10200;49.232;9.222;2022-12-07T16:31:22;15.90;;;9.90;;
20080;SDS011;10200;49.232;9.222;2022-12-07T16:33:50;15.00;;;9.37;;
20080;SDS011;10200;49.232;9.222;2022-12-07T16:36:19;14.30;;;8.03;;
20080;SDS011;10200;49.232;9.222;2022-12-07T16:38:46;14.67;;;8.80;;
20080;SDS011;10200;49.232;9.222;2022-12-07T16:41:12;15.50;;;8.37;;
20080;SDS011;10200;49.232;9.222;2022-12-07T16:43:38;18.30;;;9.53;;
20080;SDS011;10200;49.232;9.222;2022-12-07T16:46:04;18.13;;;9.27;;
20080;SDS011;10200;49.232;9.222;2022-12-07T16:48:29;20.27;;;11.50;;
20080;SDS011;10200;49.232;9.222;2022-12-07T16:50:55;16.13;;;11.10;;
20080;SDS011;10200;49.232;9.222;2022-12-07T16:53:22;19.37;;;10.83;;
20080;SDS011;10200;49.232;9.222;2022-12-07T16:55:49;15.73;;;9.47;;
20080;SDS011;10200;49.232;9.222;2022-12-07T16:58:15;14.83;;;9.63;;
20080;SDS011;10200;49.232;9.222;2022-12-07T17:00:41;15.27;;;8.60;;
20080;SDS011;10200;49.232;9.222;2022-12-07T17:03:08;21.47;;;10.77;;
20080;SDS011;10200;49.232;9.222;2022-12-07T17:05:37;17.50;;;9.90;;
20080;SDS011;10200;49.232;9.222;2022-12-07T17:08:06;16.80;;;9.60;;
20080;SDS011;10200;49.232;9.222;2022-12-07T17:10:34;16.03;;;8.97;;